Time;durP1;ratioP1;P1;durP2;ratioP2;P2;SDS_P1;SDS_P2;PMS_P1;PMS_P2;Temp;Humidity;BMP_temperature;BMP_pressure;BME280_temperature;BME280_humidity;BME280_pressure;Samples;Min_cycle;Max_cycle;Signal;HPM_P1;HPM_P2
2022/01/09 00:00:00;;;;;;;;;;;6.20;99.90;;;;;;5076830;28;19954;-77
2022/01/09 00:02:26;;;;;;;;;;;6.20;99.90;;;;;;5076621;28;19912;-82
2022/01/09 00:04:51;;;;;;;;;;;6.10;99.90;;;;;;5076457;28;19920;-81
2022/01/09 00:07:17;;;;;;;;;;;6.20;99.90;;;;;;5076262;28;19934;-80
2022/01/09 00:09:44;;;;;;;;;;;6.20;99.90;;;;;;5074929;28;19919;-78
2022/01/09 00:12:11;;;;;;;;;;;6.20;99.90;;;;;;5076566;28;20003;-80
2022/01/09 00:14:36;;;;;;;;;;;6.20;99.90;;;;;;5076131;28;19927;-81
2022/01/09 00:17:02;;;;;;;;;;;6.30;99.90;;;;;;5076651;28;19912;-83
2022/01/09 00:19:28;;;;;;;;;;;6.30;99.90;;;;;;5075890;28;19908;-81
2022/01/09 00:21:53;;;;;;;;;;;6.30;99.90;;;;;;5076283;28;19935;-80
2022/01/09 00:24:19;;;;;;;;;;;6.30;99.90;;;;;;5076006;28;19966;-80
2022/01/09 00:26:45;;;;;;;;;;;6.40;99.90;;;;;;5076162;28;19912;-80
2022/01/09 00:29:10;;;;;;;;;;;6.40;99.90;;;;;;5071145;28;20431;-81
2022/01/09 00:31:36;;;;;;;;;;;6.40;99.90;;;;;;5071552;28;19940;-79
2022/01/09 00:34:02;;;;;;;;;;;6.40;99.90;;;;;;5056085;28;20432;-80
2022/01/09 00:36:28;;;;;;;;;;;6.40;99.90;;;;;;5056176;28;19913;-81
2022/01/09 00:38:54;;;;;;;;;;;6.30;99.90;;;;;;5069485;28;19909;-81
2022/01/09 00:41:19;;;;;;;;;;;6.30;99.90;;;;;;5056699;28;19913;-81
2022/01/09 00:43:45;;;;;;;;;;;6.40;99.90;;;;;;5075749;28;19916;-81
2022/01/09 00:46:11;;;;;;;;;;;6.40;99.90;;;;;;5075919;28;20398;-82
2022/01/09 00:48:36;;;;;;;;;;;6.30;99.90;;;;;;5075386;28;19908;-80
2022/01/09 00:51:02;;;;;;;;;;;6.30;99.90;;;;;;5075770;28;20372;-81
2022/01/09 00:53:27;;;;;;;;;;;6.30;99.90;;;;;;5075608;28;19931;-79
2022/01/09 00:55:53;;;;;;;;;;;6.30;99.90;;;;;;5074619;28;19962;-78
2022/01/09 00:58:19;;;;;;;;;;;6.20;99.90;;;;;;5075441;28;19908;-79
2022/01/09 01:00:44;;;;;;;;;;;6.10;99.90;;;;;;5074629;28;19908;-79
2022/01/09 01:03:10;;;;;;;;;;;6.00;99.90;;;;;;5075432;28;19954;-82
2022/01/09 01:05:36;;;;;;;;;;;6.00;99.90;;;;;;5075320;28;19909;-81
2022/01/09 01:08:01;;;;;;;;;;;6.00;99.90;;;;;;5070404;28;19920;-83
2022/01/09 01:10:27;;;;;;;;;;;6.00;99.90;;;;;;5054129;28;20046;-80
2022/01/09 01:12:52;;;;;;;;;;;6.00;99.90;;;;;;5055298;28;19920;-81
2022/01/09 01:15:18;;;;;;;;;;;6.00;99.90;;;;;;5054933;28;20035;-82
2022/01/09 01:17:45;;;;;;;;;;;6.20;99.90;;;;;;5057822;28;20285;-79
2022/01/09 01:20:11;;;;;;;;;;;6.20;99.90;;;;;;5075353;28;19916;-82
2022/01/09 01:22:37;;;;;;;;;;;6.20;99.90;;;;;;5090772;28;19915;-80
2022/01/09 01:25:04;;;;;;;;;;;6.30;99.90;;;;;;5074841;28;19920;-81
2022/01/09 01:27:30;;;;;;;;;;;6.20;99.90;;;;;;5073610;28;19912;-81
2022/01/09 01:29:56;;;;;;;;;;;6.20;99.90;;;;;;5074805;28;19959;-80
2022/01/09 01:32:22;;;;;;;;;;;6.20;99.90;;;;;;5075062;28;19915;-81
2022/01/09 01:34:48;;;;;;;;;;;6.30;99.90;;;;;;5074952;28;19908;-81
2022/01/09 01:37:13;;;;;;;;;;;6.30;99.90;;;;;;5074960;28;20404;-81
2022/01/09 01:39:39;;;;;;;;;;;6.30;99.90;;;;;;5074390;28;19909;-81
2022/01/09 01:42:05;;;;;;;;;;;6.40;99.90;;;;;;5055437;28;20407;-81
2022/01/09 01:44:41;;;;;;;;;;;6.40;99.90;;;;;;5074774;28;19938;-81
2022/01/09 01:47:07;;;;;;;;;;;6.40;99.90;;;;;;5074638;28;19915;-81
2022/01/09 01:49:33;;;;;;;;;;;6.50;99.90;;;;;;5074316;28;19913;-81
2022/01/09 01:51:58;;;;;;;;;;;6.60;99.90;;;;;;5090155;28;20031;-80
2022/01/09 01:54:25;;;;;;;;;;;6.50;99.90;;;;;;5074192;28;19912;-81
2022/01/09 01:56:51;;;;;;;;;;;6.40;99.90;;;;;;5074563;28;19999;-77
2022/01/09 01:59:16;;;;;;;;;;;6.50;99.90;;;;;;5069330;28;20399;-83
2022/01/09 02:01:42;;;;;;;;;;;6.50;99.90;;;;;;5054480;28;19955;-78
2022/01/09 02:04:07;;;;;;;;;;;6.60;99.90;;;;;;5054243;28;19920;-81
2022/01/09 02:06:34;;;;;;;;;;;6.50;99.90;;;;;;5054111;28;20006;-78
2022/01/09 02:09:00;;;;;;;;;;;6.60;99.90;;;;;;5065889;28;19935;-81
2022/01/09 02:11:26;;;;;;;;;;;6.60;99.90;;;;;;5074156;28;19970;-79
2022/01/09 02:13:51;;;;;;;;;;;6.70;99.90;;;;;;5074006;28;19943;-81
2022/01/09 02:16:18;;;;;;;;;;;6.60;99.90;;;;;;5074041;28;19909;-78
2022/01/09 02:18:44;;;;;;;;;;;6.60;99.90;;;;;;5073801;28;19915;-82
2022/01/09 02:21:10;;;;;;;;;;;6.60;99.90;;;;;;5073927;28;19909;-79
2022/01/09 02:23:38;;;;;;;;;;;6.60;99.90;;;;;;5072652;28;19913;-81
2022/01/09 02:26:04;;;;;;;;;;;6.60;99.90;;;;;;5072574;28;19909;-81
2022/01/09 02:28:29;;;;;;;;;;;6.60;99.90;;;;;;5073520;28;19915;-79
2022/01/09 02:30:55;;;;;;;;;;;6.50;99.90;;;;;;5073944;28;20407;-79
2022/01/09 02:33:21;;;;;;;;;;;6.50;99.90;;;;;;5073781;28;19930;-79
2022/01/09 02:35:51;;;;;;;;;;;6.50;99.90;;;;;;5073844;28;19909;-81
2022/01/09 02:38:17;;;;;;;;;;;6.40;99.90;;;;;;5073340;28;19908;-81
2022/01/09 02:40:43;;;;;;;;;;;6.40;99.90;;;;;;5073602;28;19913;-79
2022/01/09 02:43:08;;;;;;;;;;;6.40;99.90;;;;;;5054367;28;19916;-80
2022/01/09 02:45:34;;;;;;;;;;;6.30;99.90;;;;;;5072309;28;20008;-80
2022/01/09 02:48:02;;;;;;;;;;;6.30;99.90;;;;;;5073308;28;20292;-81
2022/01/09 02:53:00;;;;;;;;;;;6.50;99.90;;;;;;5073418;28;19909;-78
2022/01/09 02:55:26;;;;;;;;;;;6.50;99.90;;;;;;5073511;28;19912;-81
2022/01/09 02:57:53;;;;;;;;;;;6.60;99.90;;;;;;5073292;28;19915;-79
2022/01/09 03:00:21;;;;;;;;;;;6.60;99.90;;;;;;5073347;28;20455;-81
2022/01/09 03:02:47;;;;;;;;;;;6.70;99.90;;;;;;5073539;28;19916;-81
2022/01/09 03:05:13;;;;;;;;;;;6.60;99.90;;;;;;5071795;28;19916;-80
2022/01/09 03:07:40;;;;;;;;;;;6.60;99.90;;;;;;5073374;28;19916;-79
2022/01/09 03:10:06;;;;;;;;;;;6.60;99.90;;;;;;5072829;28;19909;-78
2022/01/09 03:12:32;;;;;;;;;;;6.60;99.90;;;;;;5073269;28;19908;-78
2022/01/09 03:14:58;;;;;;;;;;;6.60;99.90;;;;;;5072929;28;19920;-80
2022/01/09 03:17:24;;;;;;;;;;;6.60;99.90;;;;;;5072875;28;19909;-83
2022/01/09 03:19:49;;;;;;;;;;;6.60;99.90;;;;;;5072765;28;19908;-79
2022/01/09 03:22:15;;;;;;;;;;;6.60;99.90;;;;;;5072072;28;20373;-78
2022/01/09 03:24:42;;;;;;;;;;;6.50;99.90;;;;;;5072396;28;20011;-80
2022/01/09 03:27:08;;;;;;;;;;;6.60;99.90;;;;;;5073246;28;19912;-82
2022/01/09 03:29:34;;;;;;;;;;;6.60;99.90;;;;;;5072555;28;19915;-79
2022/01/09 03:31:59;;;;;;;;;;;6.60;99.90;;;;;;5073151;28;19908;-82
2022/01/09 03:34:26;;;;;;;;;;;6.50;99.90;;;;;;5088506;28;19954;-79
2022/01/09 03:36:51;;;;;;;;;;;6.50;99.90;;;;;;5071767;28;19931;-79
2022/01/09 03:39:17;;;;;;;;;;;6.50;99.90;;;;;;5072588;28;20380;-78
2022/01/09 03:41:42;;;;;;;;;;;6.50;99.90;;;;;;5071489;28;19919;-82
2022/01/09 03:44:08;;;;;;;;;;;6.50;99.90;;;;;;5053831;28;19978;-80
2022/01/09 03:46:33;;;;;;;;;;;6.60;99.90;;;;;;5071587;28;19908;-79
2022/01/09 03:48:59;;;;;;;;;;;6.70;99.90;;;;;;5072651;28;19908;-81
2022/01/09 03:51:31;;;;;;;;;;;6.60;99.90;;;;;;5072799;28;19915;-80
2022/01/09 03:53:57;;;;;;;;;;;6.70;99.90;;;;;;5072718;28;19912;-80
2022/01/09 03:56:23;;;;;;;;;;;6.70;99.90;;;;;;5072722;28;20423;-81
2022/01/09 03:58:48;;;;;;;;;;;6.70;99.90;;;;;;5072482;28;19995;-78
2022/01/09 04:01:14;;;;;;;;;;;6.70;99.90;;;;;;5071424;28;20280;-82
2022/01/09 04:03:39;;;;;;;;;;;6.60;99.90;;;;;;5071365;28;19912;-82
2022/01/09 04:06:05;;;;;;;;;;;6.50;99.90;;;;;;5072299;28;19908;-81
2022/01/09 04:08:33;;;;;;;;;;;6.60;99.90;;;;;;5072409;28;19995;-82
2022/01/09 04:10:59;;;;;;;;;;;6.50;99.90;;;;;;5072659;28;19912;-80
2022/01/09 04:13:25;;;;;;;;;;;6.50;99.90;;;;;;5072468;28;19921;-79
2022/01/09 04:15:50;;;;;;;;;;;6.40;99.90;;;;;;5072853;28;19973;-81
2022/01/09 04:18:17;;;;;;;;;;;6.50;99.90;;;;;;5072114;28;19920;-80
2022/01/09 04:20:42;;;;;;;;;;;6.40;99.90;;;;;;5072517;28;19935;-79
2022/01/09 04:23:08;;;;;;;;;;;6.50;99.90;;;;;;5072485;28;20373;-81
2022/01/09 04:25:34;;;;;;;;;;;6.60;99.90;;;;;;5072568;28;19962;-79
2022/01/09 04:27:59;;;;;;;;;;;6.60;99.90;;;;;;5072511;28;19955;-80
2022/01/09 04:30:25;;;;;;;;;;;6.60;99.90;;;;;;5071978;28;19908;-80
2022/01/09 04:32:51;;;;;;;;;;;6.60;99.90;;;;;;5071114;28;19908;-78
2022/01/09 04:35:16;;;;;;;;;;;6.70;99.90;;;;;;5073220;28;19987;-82
2022/01/09 04:37:43;;;;;;;;;;;6.70;99.90;;;;;;5075923;28;19931;-82
2022/01/09 04:40:10;;;;;;;;;;;6.70;99.90;;;;;;5075480;28;19908;-79
2022/01/09 04:42:43;;;;;;;;;;;6.70;99.90;;;;;;5056817;28;20315;-80
2022/01/09 04:45:10;;;;;;;;;;;6.70;99.90;;;;;;5074333;28;19913;-81
2022/01/09 04:47:36;;;;;;;;;;;6.70;99.90;;;;;;5075850;28;20482;-81
2022/01/09 04:50:02;;;;;;;;;;;6.70;99.90;;;;;;5075342;28;19923;-82
2022/01/09 04:52:33;;;;;;;;;;;6.80;99.90;;;;;;5074539;28;19908;-81
2022/01/09 04:54:59;;;;;;;;;;;6.70;99.90;;;;;;5075510;28;19909;-78
2022/01/09 04:57:25;;;;;;;;;;;6.70;99.90;;;;;;5075792;28;19909;-81
2022/01/09 04:59:50;;;;;;;;;;;6.60;99.90;;;;;;5075304;28;19931;-80
2022/01/09 05:02:16;;;;;;;;;;;6.70;99.90;;;;;;5075893;28;19919;-79
2022/01/09 05:04:41;;;;;;;;;;;6.70;99.90;;;;;;5075355;28;19971;-79
2022/01/09 05:07:07;;;;;;;;;;;6.60;99.90;;;;;;5075527;28;19919;-80
2022/01/09 05:09:32;;;;;;;;;;;6.50;99.90;;;;;;5075022;28;19945;-79
2022/01/09 05:11:58;;;;;;;;;;;6.50;99.90;;;;;;5075301;28;19920;-81
2022/01/09 05:14:24;;;;;;;;;;;6.30;99.90;;;;;;5075214;28;19931;-80
2022/01/09 05:16:50;;;;;;;;;;;6.40;99.90;;;;;;5075136;28;20003;-82
2022/01/09 05:19:28;;;;;;;;;;;6.20;99.90;;;;;;5073615;28;19908;-78
2022/01/09 05:21:55;;;;;;;;;;;6.10;99.90;;;;;;5075244;28;20004;-79
2022/01/09 05:24:21;;;;;;;;;;;6.10;99.90;;;;;;5073704;28;20479;-78
2022/01/09 05:26:47;;;;;;;;;;;5.90;99.90;;;;;;5075116;28;19966;-80
2022/01/09 05:29:12;;;;;;;;;;;5.90;99.90;;;;;;5074639;28;20003;-81
2022/01/09 05:31:38;;;;;;;;;;;6.00;99.90;;;;;;5075146;28;19908;-80
2022/01/09 05:34:04;;;;;;;;;;;5.90;99.90;;;;;;5075050;28;19908;-79
2022/01/09 05:36:29;;;;;;;;;;;5.90;99.90;;;;;;5074809;28;19909;-78
2022/01/09 05:38:55;;;;;;;;;;;5.90;99.90;;;;;;5073194;28;20487;-80
2022/01/09 05:41:21;;;;;;;;;;;5.80;99.90;;;;;;5074635;28;19959;-78
2022/01/09 05:43:47;;;;;;;;;;;5.80;99.90;;;;;;5055744;28;19990;-82
2022/01/09 05:46:12;;;;;;;;;;;5.80;99.90;;;;;;5074368;28;20424;-80
2022/01/09 05:48:38;;;;;;;;;;;5.80;99.90;;;;;;5073195;28;19912;-80
2022/01/09 05:51:03;;;;;;;;;;;5.80;99.90;;;;;;5074620;28;19908;-78
2022/01/09 05:53:29;;;;;;;;;;;5.80;99.90;;;;;;5074548;28;19939;-80
2022/01/09 05:55:54;;;;;;;;;;;5.80;99.90;;;;;;5074554;28;20369;-81
2022/01/09 05:58:20;;;;;;;;;;;5.70;99.90;;;;;;5074558;28;19931;-80
2022/01/09 06:00:46;;;;;;;;;;;5.70;99.90;;;;;;5074064;28;19962;-81
2022/01/09 06:03:11;;;;;;;;;;;5.60;99.90;;;;;;5074371;28;19909;-79
2022/01/09 06:05:37;;;;;;;;;;;5.60;99.90;;;;;;5072919;28;19908;-78
2022/01/09 06:08:02;;;;;;;;;;;5.60;99.90;;;;;;5074242;28;20377;-82
2022/01/09 06:10:28;;;;;;;;;;;5.50;99.90;;;;;;5073844;28;19909;-81
2022/01/09 06:12:53;;;;;;;;;;;5.50;99.90;;;;;;5074303;28;20285;-77
2022/01/09 06:15:19;;;;;;;;;;;5.60;99.90;;;;;;5073718;28;19955;-81
2022/01/09 06:17:45;;;;;;;;;;;5.70;99.90;;;;;;5073961;28;19909;-80
2022/01/09 06:20:12;;;;;;;;;;;5.80;99.90;;;;;;5073689;28;19916;-79
2022/01/09 06:22:38;;;;;;;;;;;5.70;99.90;;;;;;5074161;28;20327;-82
2022/01/09 06:25:04;;;;;;;;;;;5.80;99.90;;;;;;5073683;28;19965;-81
2022/01/09 06:27:29;;;;;;;;;;;5.90;99.90;;;;;;5073958;28;19995;-82
2022/01/09 06:29:55;;;;;;;;;;;5.90;99.90;;;;;;5072170;28;20369;-79
2022/01/09 06:32:20;;;;;;;;;;;5.90;99.90;;;;;;5073856;28;19954;-80
2022/01/09 06:34:46;;;;;;;;;;;5.90;99.90;;;;;;5073869;28;19908;-80
2022/01/09 06:37:12;;;;;;;;;;;5.80;99.90;;;;;;5073721;28;19969;-80
2022/01/09 06:39:39;;;;;;;;;;;5.80;99.90;;;;;;5072024;28;20365;-79
2022/01/09 06:42:04;;;;;;;;;;;5.80;99.90;;;;;;5073266;28;19999;-83
2022/01/09 06:44:30;;;;;;;;;;;5.70;99.90;;;;;;5054472;28;20011;-81
2022/01/09 06:46:55;;;;;;;;;;;5.80;99.90;;;;;;5073668;28;19916;-79
2022/01/09 06:49:21;;;;;;;;;;;5.90;99.90;;;;;;5073118;28;19909;-83
2022/01/09 06:51:47;;;;;;;;;;;5.90;99.90;;;;;;5073778;28;20383;-81
2022/01/09 06:54:13;;;;;;;;;;;6.00;99.90;;;;;;5073151;28;19913;-81
2022/01/09 06:56:39;;;;;;;;;;;6.00;99.90;;;;;;5073805;28;19909;-80
2022/01/09 06:59:05;;;;;;;;;;;6.00;99.90;;;;;;5072427;28;19917;-81
2022/01/09 07:01:31;;;;;;;;;;;6.10;99.90;;;;;;5073388;28;19908;-80
2022/01/09 07:03:56;;;;;;;;;;;6.10;99.90;;;;;;5072083;28;20331;-80
2022/01/09 07:06:22;;;;;;;;;;;6.10;99.90;;;;;;5072821;28;20296;-78
2022/01/09 07:08:47;;;;;;;;;;;6.10;99.90;;;;;;5073016;28;19943;-80
2022/01/09 07:11:13;;;;;;;;;;;6.10;99.90;;;;;;5073230;28;19920;-81
2022/01/09 07:13:39;;;;;;;;;;;6.20;99.90;;;;;;5073064;28;19966;-81
2022/01/09 07:16:04;;;;;;;;;;;6.20;99.90;;;;;;5073286;28;20018;-81
2022/01/09 07:18:30;;;;;;;;;;;6.10;99.90;;;;;;5073199;28;19923;-80
2022/01/09 07:20:56;;;;;;;;;;;6.20;99.90;;;;;;5072733;28;19916;-78
2022/01/09 07:23:21;;;;;;;;;;;6.20;99.90;;;;;;5072982;28;19908;-81
2022/01/09 07:25:47;;;;;;;;;;;6.20;99.90;;;;;;5073133;28;19908;-79
2022/01/09 07:28:12;;;;;;;;;;;6.20;99.90;;;;;;5071674;28;19919;-77
2022/01/09 07:30:38;;;;;;;;;;;6.20;99.90;;;;;;5088106;28;19910;-79
2022/01/09 07:33:04;;;;;;;;;;;6.10;99.90;;;;;;5073141;28;19962;-80
2022/01/09 07:35:30;;;;;;;;;;;6.00;99.90;;;;;;5072990;28;19912;-79
2022/01/09 07:37:56;;;;;;;;;;;6.00;99.90;;;;;;5073055;28;20266;-80
2022/01/09 07:40:21;;;;;;;;;;;5.90;99.90;;;;;;5087919;28;19912;-79
2022/01/09 07:42:47;;;;;;;;;;;5.90;99.90;;;;;;5071674;28;19909;-82
2022/01/09 07:45:13;;;;;;;;;;;5.80;99.90;;;;;;5053861;28;19946;-79
2022/01/09 07:47:39;;;;;;;;;;;5.90;99.90;;;;;;5072871;28;19909;-82
2022/01/09 07:50:06;;;;;;;;;;;5.90;99.90;;;;;;5072648;28;19909;-83
2022/01/09 07:52:35;;;;;;;;;;;6.00;99.90;;;;;;5072740;28;19908;-83
2022/01/09 07:55:02;;;;;;;;;;;6.00;99.90;;;;;;5072559;28;20377;-81
2022/01/09 07:57:28;;;;;;;;;;;6.10;99.90;;;;;;5071642;28;19909;-80
2022/01/09 07:59:56;;;;;;;;;;;6.20;99.90;;;;;;5071103;28;19909;-79
2022/01/09 08:02:22;;;;;;;;;;;6.10;99.90;;;;;;5071551;28;19909;-82
2022/01/09 08:04:47;;;;;;;;;;;6.20;99.90;;;;;;5072685;28;20491;-81
2022/01/09 08:07:13;;;;;;;;;;;6.20;99.90;;;;;;5071412;28;20331;-82
2022/01/09 08:09:39;;;;;;;;;;;6.30;99.90;;;;;;5073376;28;20369;-85
2022/01/09 08:12:05;;;;;;;;;;;6.30;99.90;;;;;;5076716;28;20304;-80
2022/01/09 08:14:31;;;;;;;;;;;6.30;99.90;;;;;;5076258;28;19921;-84
2022/01/09 08:16:57;;;;;;;;;;;6.30;99.90;;;;;;5075009;28;19909;-79
2022/01/09 08:19:22;;;;;;;;;;;6.20;99.90;;;;;;5076160;28;19920;-78
2022/01/09 08:21:48;;;;;;;;;;;6.40;99.90;;;;;;5076297;28;19915;-82
2022/01/09 08:24:14;;;;;;;;;;;6.30;99.90;;;;;;5076180;28;20452;-81
2022/01/09 08:26:40;;;;;;;;;;;6.30;99.90;;;;;;5076143;28;19947;-80
2022/01/09 08:29:05;;;;;;;;;;;6.40;99.90;;;;;;5075876;28;19908;-78
2022/01/09 08:31:31;;;;;;;;;;;6.40;99.90;;;;;;5076705;28;19915;-79
2022/01/09 08:33:57;;;;;;;;;;;6.40;99.90;;;;;;5076153;28;20388;-80
2022/01/09 08:36:22;;;;;;;;;;;6.50;99.90;;;;;;5076174;28;19909;-79
2022/01/09 08:38:48;;;;;;;;;;;6.60;99.90;;;;;;5075892;28;20274;-80
2022/01/09 08:41:14;;;;;;;;;;;6.40;99.90;;;;;;5075725;28;19915;-82
2022/01/09 08:43:39;;;;;;;;;;;6.40;99.90;;;;;;5075831;28;19913;-79
2022/01/09 08:46:05;;;;;;;;;;;6.50;99.90;;;;;;5057124;28;19916;-81
2022/01/09 08:48:31;;;;;;;;;;;6.50;99.90;;;;;;5074559;28;19908;-78
2022/01/09 08:50:57;;;;;;;;;;;6.50;99.90;;;;;;5075457;28;19909;-81
2022/01/09 08:53:22;;;;;;;;;;;6.50;99.90;;;;;;5075724;28;19919;-81
2022/01/09 08:55:48;;;;;;;;;;;6.50;99.90;;;;;;5075700;28;19948;-80
2022/01/09 08:58:13;;;;;;;;;;;6.50;99.90;;;;;;5075825;28;19908;-79
2022/01/09 09:00:39;;;;;;;;;;;6.50;99.90;;;;;;5075205;28;19915;-77
2022/01/09 09:03:05;;;;;;;;;;;6.60;99.90;;;;;;5075643;28;20280;-79
2022/01/09 09:05:31;;;;;;;;;;;6.80;99.90;;;;;;5075303;28;19952;-78
2022/01/09 09:07:58;;;;;;;;;;;6.90;99.90;;;;;;5075580;28;19915;-79
2022/01/09 09:10:24;;;;;;;;;;;7.10;99.90;;;;;;5074972;28;19916;-78
2022/01/09 09:12:49;;;;;;;;;;;7.20;99.90;;;;;;5075584;28;19915;-78
2022/01/09 09:15:15;;;;;;;;;;;7.20;99.90;;;;;;5090552;28;19920;-80
2022/01/09 09:17:41;;;;;;;;;;;7.50;99.90;;;;;;5075248;28;19915;-80
2022/01/09 09:20:07;;;;;;;;;;;7.70;99.90;;;;;;5074847;28;19915;-78
2022/01/09 09:22:33;;;;;;;;;;;7.90;99.90;;;;;;5074592;28;20017;-79
2022/01/09 09:24:59;;;;;;;;;;;8.10;99.90;;;;;;5074804;28;20399;-78
2022/01/09 09:27:30;;;;;;;;;;;8.60;99.90;;;;;;5075111;28;19951;-80
2022/01/09 09:30:05;;;;;;;;;;;8.80;99.90;;;;;;5074554;28;19954;-81
2022/01/09 09:32:31;;;;;;;;;;;8.90;99.90;;;;;;5075187;28;19916;-79
2022/01/09 09:34:57;;;;;;;;;;;8.80;99.90;;;;;;5074935;28;19909;-79
2022/01/09 09:37:23;;;;;;;;;;;8.50;99.90;;;;;;5075136;28;19948;-79
2022/01/09 09:39:51;;;;;;;;;;;8.00;99.90;;;;;;5074322;28;19909;-81
2022/01/09 09:42:17;;;;;;;;;;;8.10;99.90;;;;;;5074569;28;19912;-83
2022/01/09 09:44:43;;;;;;;;;;;8.00;99.90;;;;;;5055765;28;19916;-83
2022/01/09 09:47:10;;;;;;;;;;;8.10;99.90;;;;;;5074573;28;19920;-80
2022/01/09 09:49:35;;;;;;;;;;;8.10;99.90;;;;;;5074574;28;20373;-78
2022/01/09 09:52:01;;;;;;;;;;;7.80;99.90;;;;;;5074559;28;19915;-78
2022/01/09 09:54:26;;;;;;;;;;;7.90;99.90;;;;;;5074377;28;19908;-79
2022/01/09 09:56:52;;;;;;;;;;;8.10;99.90;;;;;;5074535;28;19909;-80
2022/01/09 09:59:25;;;;;;;;;;;8.20;99.90;;;;;;5074626;28;20015;-83
2022/01/09 10:01:51;;;;;;;;;;;8.40;99.90;;;;;;5074450;28;20003;-79
2022/01/09 10:04:16;;;;;;;;;;;8.60;99.90;;;;;;5074626;28;20402;-80
2022/01/09 10:06:42;;;;;;;;;;;8.90;99.90;;;;;;5074309;28;19930;-81
2022/01/09 10:09:09;;;;;;;;;;;8.90;99.90;;;;;;5072860;28;20443;-82
2022/01/09 10:12:01;;;;;;;;;;;9.10;99.90;;;;;;5073871;28;19997;-81
2022/01/09 10:14:31;;;;;;;;;;;9.30;99.90;;;;;;5070639;28;19970;-79
2022/01/09 10:17:16;;;;;;;;;;;10.00;99.90;;;;;;5074234;28;19931;-82
2022/01/09 10:19:42;;;;;;;;;;;10.50;99.90;;;;;;5074022;28;20372;-79
2022/01/09 10:22:20;;;;;;;;;;;10.60;99.90;;;;;;5074019;28;19909;-78
2022/01/09 10:24:46;;;;;;;;;;;10.80;99.90;;;;;;5073780;28;20011;-81
2022/01/09 10:27:25;;;;;;;;;;;11.00;99.90;;;;;;5072688;28;20377;-80
2022/01/09 10:29:50;;;;;;;;;;;11.30;99.90;;;;;;5073493;28;19931;-79
2022/01/09 10:32:16;;;;;;;;;;;11.60;99.90;;;;;;5073558;28;19916;-80
2022/01/09 10:34:42;;;;;;;;;;;12.30;99.90;;;;;;5073368;28;19908;-81
2022/01/09 10:37:16;;;;;;;;;;;12.80;99.90;;;;;;5073831;28;19909;-83
2022/01/09 10:39:43;;;;;;;;;;;13.20;99.90;;;;;;5073470;28;19950;-79
2022/01/09 10:42:12;;;;;;;;;;;12.80;99.90;;;;;;5073417;28;19908;-81
2022/01/09 10:44:39;;;;;;;;;;;12.30;99.90;;;;;;5072391;28;19916;-81
2022/01/09 10:47:06;;;;;;;;;;;12.40;99.90;;;;;;5054511;28;20389;-82
2022/01/09 10:49:50;;;;;;;;;;;12.00;99.90;;;;;;5073484;28;20108;-82
2022/01/09 10:52:18;;;;;;;;;;;11.70;99.90;;;;;;5073537;28;19916;-82
2022/01/09 10:54:46;;;;;;;;;;;11.50;99.90;;;;;;5071984;28;19913;-80
2022/01/09 10:57:12;;;;;;;;;;;11.40;99.90;;;;;;5073444;28;20361;-82
2022/01/09 10:59:37;;;;;;;;;;;11.20;99.90;;;;;;5073264;28;19916;-79
2022/01/09 11:02:03;;;;;;;;;;;11.20;99.90;;;;;;5073408;28;19912;-81
2022/01/09 11:04:29;;;;;;;;;;;11.60;99.90;;;;;;5071934;28;20003;-79
2022/01/09 11:06:55;;;;;;;;;;;11.30;99.90;;;;;;5072104;28;19995;-77
2022/01/09 11:09:24;;;;;;;;;;;10.90;99.90;;;;;;5073116;28;19908;-82
2022/01/09 11:11:50;;;;;;;;;;;10.70;99.90;;;;;;5072822;28;19980;-79
2022/01/09 11:14:18;;;;;;;;;;;10.80;99.90;;;;;;5073089;28;19920;-79
2022/01/09 11:16:51;;;;;;;;;;;10.60;99.90;;;;;;5073184;28;19962;-78
2022/01/09 11:19:18;;;;;;;;;;;10.40;99.90;;;;;;5071951;28;19970;-80
2022/01/09 11:21:45;;;;;;;;;;;10.20;99.90;;;;;;5073047;28;19958;-81
2022/01/09 11:24:10;;;;;;;;;;;10.20;99.90;;;;;;5072824;28;20430;-79
2022/01/09 11:26:42;;;;;;;;;;;10.30;99.90;;;;;;5073104;28;19912;-82
2022/01/09 11:29:09;;;;;;;;;;;10.30;99.90;;;;;;5073048;28;19909;-79
2022/01/09 11:31:49;;;;;;;;;;;10.00;99.90;;;;;;5072550;28;19951;-80
2022/01/09 11:34:23;;;;;;;;;;;10.00;99.90;;;;;;5073065;28;19916;-79
2022/01/09 11:36:55;;;;;;;;;;;10.10;99.90;;;;;;5071980;28;19908;-81
2022/01/09 11:39:23;;;;;;;;;;;9.90;99.90;;;;;;5072821;28;20369;-80
2022/01/09 11:42:04;;;;;;;;;;;9.70;99.90;;;;;;5072782;28;19909;-76
2022/01/09 11:44:30;;;;;;;;;;;10.00;99.90;;;;;;5073881;28;19920;-79
2022/01/09 11:47:03;;;;;;;;;;;10.20;99.90;;;;;;5058171;28;19917;-79
2022/01/09 11:49:39;;;;;;;;;;;10.50;99.90;;;;;;5076940;28;20003;-79
2022/01/09 11:52:06;;;;;;;;;;;10.60;99.90;;;;;;5076915;28;19908;-81
2022/01/09 11:54:50;;;;;;;;;;;10.90;99.90;;;;;;5076642;28;19915;-80
2022/01/09 11:57:33;;;;;;;;;;;11.20;99.90;;;;;;5076845;28;19909;-80
2022/01/09 11:59:58;;;;;;;;;;;11.60;99.90;;;;;;5076765;28;19915;-77
2022/01/09 12:02:27;;;;;;;;;;;11.40;99.90;;;;;;5076792;28;20285;-79
2022/01/09 12:04:54;;;;;;;;;;;11.10;99.90;;;;;;5076553;28;19959;-77
2022/01/09 12:07:19;;;;;;;;;;;10.50;99.90;;;;;;5076641;28;19940;-79
2022/01/09 12:09:46;;;;;;;;;;;10.30;99.90;;;;;;5076469;28;19951;-79
2022/01/09 12:12:14;;;;;;;;;;;10.60;99.90;;;;;;5076430;28;19909;-79
2022/01/09 12:14:45;;;;;;;;;;;10.80;99.90;;;;;;5076280;28;19928;-80
2022/01/09 12:17:23;;;;;;;;;;;10.90;99.90;;;;;;5075099;28;19916;-80
2022/01/09 12:19:55;;;;;;;;;;;10.80;99.90;;;;;;5076344;28;19909;-77
2022/01/09 12:22:39;;;;;;;;;;;10.60;99.90;;;;;;5076586;28;20342;-77
2022/01/09 12:25:05;;;;;;;;;;;10.30;99.90;;;;;;5074845;28;19912;-78
2022/01/09 12:27:40;;;;;;;;;;;9.90;99.90;;;;;;5076317;28;19977;-78
2022/01/09 12:30:06;;;;;;;;;;;9.70;99.90;;;;;;5075863;28;19908;-77
2022/01/09 12:32:43;;;;;;;;;;;9.60;99.90;;;;;;5076196;28;19913;-79
2022/01/09 12:35:12;;;;;;;;;;;9.50;99.90;;;;;;5076135;28;19991;-82
2022/01/09 12:37:43;;;;;;;;;;;9.50;99.90;;;;;;5076172;28;19916;-80
2022/01/09 12:40:08;;;;;;;;;;;9.50;99.90;;;;;;5074154;28;19962;-83
2022/01/09 12:42:34;;;;;;;;;;;9.60;99.90;;;;;;5075712;28;20007;-79
2022/01/09 12:45:01;;;;;;;;;;;9.60;99.90;;;;;;5075944;28;19913;-83
2022/01/09 12:47:37;;;;;;;;;;;9.70;99.90;;;;;;5056936;28;19924;-82
2022/01/09 12:50:03;;;;;;;;;;;9.70;99.90;;;;;;5075728;28;19915;-81
2022/01/09 12:52:28;;;;;;;;;;;9.60;99.90;;;;;;5075747;28;19908;-84
2022/01/09 12:55:04;;;;;;;;;;;9.50;99.90;;;;;;5075607;28;19999;-83
2022/01/09 12:57:29;;;;;;;;;;;9.50;99.90;;;;;;5073570;28;20288;-82
2022/01/09 12:59:56;;;;;;;;;;;9.50;99.90;;;;;;5075728;28;19909;-79
2022/01/09 13:02:21;;;;;;;;;;;9.60;99.90;;;;;;5074880;28;20319;-80
2022/01/09 13:04:47;;;;;;;;;;;9.70;99.90;;;;;;5075543;28;19912;-82
2022/01/09 13:07:16;;;;;;;;;;;9.90;99.90;;;;;;5075735;28;19916;-80
2022/01/09 13:09:42;;;;;;;;;;;10.00;99.90;;;;;;5075371;28;19931;-84
2022/01/09 13:12:07;;;;;;;;;;;10.20;99.90;;;;;;5073696;28;20416;-81
2022/01/09 13:14:42;;;;;;;;;;;10.40;99.90;;;;;;5075381;28;19928;-81
2022/01/09 13:17:08;;;;;;;;;;;10.40;99.90;;;;;;5073881;28;19916;-80
2022/01/09 13:19:34;;;;;;;;;;;10.20;99.90;;;;;;5074155;28;19913;-78
2022/01/09 13:22:02;;;;;;;;;;;10.00;99.90;;;;;;5074887;28;19908;-80
2022/01/09 13:24:28;;;;;;;;;;;10.10;99.90;;;;;;5090618;28;19912;-80
2022/01/09 13:26:55;;;;;;;;;;;10.00;99.90;;;;;;5075218;28;19912;-81
2022/01/09 13:29:23;;;;;;;;;;;10.00;99.90;;;;;;5075193;28;19915;-81
2022/01/09 13:31:53;;;;;;;;;;;10.00;99.90;;;;;;5074662;28;19909;-79
2022/01/09 13:34:38;;;;;;;;;;;10.00;99.90;;;;;;5075140;28;19908;-77
2022/01/09 13:37:08;;;;;;;;;;;9.90;99.90;;;;;;5074890;28;20401;-79
2022/01/09 13:39:34;;;;;;;;;;;9.80;99.90;;;;;;5074902;28;19918;-80
2022/01/09 13:42:02;;;;;;;;;;;9.90;99.90;;;;;;5069711;28;20362;-80
2022/01/09 13:44:31;;;;;;;;;;;9.90;99.90;;;;;;5053588;28;19912;-81
2022/01/09 13:47:04;;;;;;;;;;;10.00;99.90;;;;;;5046418;28;20419;-78
2022/01/09 13:49:30;;;;;;;;;;;10.00;99.90;;;;;;5054851;28;20416;-80
2022/01/09 13:51:56;;;;;;;;;;;10.10;99.90;;;;;;5069220;28;19915;-80
2022/01/09 13:54:23;;;;;;;;;;;10.10;99.90;;;;;;5073152;28;20424;-81
2022/01/09 13:56:59;;;;;;;;;;;10.20;99.90;;;;;;5074686;28;19915;-76
2022/01/09 13:59:54;;;;;;;;;;;10.20;99.90;;;;;;5074647;28;19958;-79
2022/01/09 14:02:21;;;;;;;;;;;10.30;99.90;;;;;;5053914;28;19909;-82
2022/01/09 14:05:06;;;;;;;;;;;10.30;99.90;;;;;;5053097;28;19913;-77
2022/01/09 14:07:32;;;;;;;;;;;10.30;99.90;;;;;;5052831;28;19909;-79
2022/01/09 14:09:57;;;;;;;;;;;10.20;99.90;;;;;;5054191;28;20397;-80
2022/01/09 14:12:23;;;;;;;;;;;10.20;99.90;;;;;;5070552;28;19943;-76
2022/01/09 14:14:50;;;;;;;;;;;10.10;99.90;;;;;;5074010;28;19920;-79
2022/01/09 14:17:41;;;;;;;;;;;10.10;99.90;;;;;;5074065;28;19908;-77
2022/01/09 14:20:13;;;;;;;;;;;10.20;99.90;;;;;;5050300;28;19909;-77
2022/01/09 14:22:40;;;;;;;;;;;10.30;99.90;;;;;;5073943;28;19954;-80
2022/01/09 14:25:10;;;;;;;;;;;10.50;99.90;;;;;;5073688;28;19947;-79
2022/01/09 14:27:38;;;;;;;;;;;10.70;99.90;;;;;;5072771;28;20368;-79